Time;durP1;ratioP1;P1;durP2;ratioP2;P2;SDS_P1;SDS_P2;PMS_P1;PMS_P2;Temp;Humidity;BMP_temperature;BMP_pressure;BME280_temperature;BME280_humidity;BME280_pressure;Samples;Min_cycle;Max_cycle;Signal;HPM_P1;HPM_P2
2022/01/11 00:00:44;;;;;;;161.48;23.77;;;;;;;-0.79;100.00;103016.53;5023311;28;20033;-46
2022/01/11 00:03:09;;;;;;;113.63;21.33;;;;;;;-0.81;100.00;103018.31;5023750;28;20104;-46
2022/01/11 00:05:48;;;;;;;132.43;23.33;;;;;;;-0.81;100.00;103034.06;5022578;28;20638;-43
2022/01/11 00:08:15;;;;;;;90.13;21.20;;;;;;;-0.78;100.00;103044.47;5023904;28;20030;-45
2022/01/11 00:10:54;;;;;;;83.88;19.00;;;;;;;-0.82;100.00;103042.81;5020909;28;20320;-47
2022/01/11 00:13:20;;;;;;;70.60;19.73;;;;;;;-0.90;100.00;103047.34;5017851;28;20025;-47
2022/01/11 00:15:47;;;;;;;84.32;21.77;;;;;;;-0.99;100.00;103040.53;5002536;28;20038;-46
2022/01/11 00:18:14;;;;;;;93.70;20.52;;;;;;;-0.96;100.00;103048.34;5003377;28;20032;-44
2022/01/11 00:20:40;;;;;;;77.30;22.05;;;;;;;-0.95;100.00;103042.19;5021794;28;20033;-45
2022/01/11 00:25:43;;;;;;;74.43;20.77;;;;;;;-0.97;100.00;103025.63;5020689;28;20053;-49
2022/01/11 00:28:12;;;;;;;85.82;20.25;;;;;;;-0.95;100.00;103031.72;5004864;28;20124;-45
2022/01/11 00:30:40;;;;;;;70.60;21.67;;;;;;;-0.91;100.00;103040.41;5022070;28;20028;-46
2022/01/11 00:33:10;;;;;;;72.57;19.75;;;;;;;-0.92;100.00;103039.50;5004871;28;20066;-46
2022/01/11 00:35:56;;;;;;;63.72;21.60;;;;;;;-0.94;100.00;103038.69;5004335;28;20033;-49
2022/01/11 00:38:22;;;;;;;81.70;22.98;;;;;;;-0.92;100.00;103039.50;5021926;28;20199;-48
2022/01/11 00:40:56;;;;;;;69.63;21.55;;;;;;;-0.89;100.00;103033.34;5022412;28;20041;-47
2022/01/11 00:43:23;;;;;;;74.63;20.85;;;;;;;-0.85;100.00;103022.78;5022802;28;20025;-49
2022/01/11 00:45:50;;;;;;;84.10;23.00;;;;;;;-0.81;100.00;103031.44;5022549;28;20037;-47
2022/01/11 00:48:16;;;;;;;95.53;25.80;;;;;;;-0.81;100.00;103027.03;5005077;28;20025;-46
2022/01/11 00:50:41;;;;;;;72.03;21.45;;;;;;;-0.82;100.00;103027.94;5022314;28;20109;-47
2022/01/11 00:53:08;;;;;;;84.10;23.42;;;;;;;-0.81;100.00;103029.66;5021839;28;20029;-45
2022/01/11 00:55:34;;;;;;;78.10;22.08;;;;;;;-0.79;100.00;103038.38;5002612;28;20048;-46
2022/01/11 00:58:02;;;;;;;65.15;20.45;;;;;;;-0.78;100.00;103040.09;5022497;28;20049;-45
2022/01/11 01:00:28;;;;;;;68.60;23.10;;;;;;;-0.78;100.00;103040.09;5021682;28;20045;-48
2022/01/11 01:02:53;;;;;;;69.30;23.13;;;;;;;-0.84;100.00;103047.25;5020415;28;20361;-46
2022/01/11 01:05:18;;;;;;;63.55;21.08;;;;;;;-0.81;100.00;103042.78;5002507;28;20041;-43
2022/01/11 01:07:44;;;;;;;79.55;20.65;;;;;;;-0.79;100.00;103040.13;5002106;28;20022;-46
2022/01/11 01:10:35;;;;;;;67.13;20.85;;;;;;;-0.72;100.00;103038.25;5001470;28;20021;-45
2022/01/11 01:12:57;;;;;;;69.10;22.73;;;;;;;-0.64;100.00;103029.28;4986751;28;20100;-46
2022/01/11 01:15:25;;;;;;;96.80;22.15;;;;;;;-0.64;100.00;103024.03;5001898;28;20034;-46
2022/01/11 01:17:51;;;;;;;77.38;21.50;;;;;;;-0.67;100.00;103039.84;5001803;28;20120;-47
2022/01/11 01:20:17;;;;;;;71.85;21.02;;;;;;;-0.70;100.00;103041.69;5003115;28;20504;-45
2022/01/11 01:22:42;;;;;;;71.97;22.58;;;;;;;-0.76;100.00;103034.81;5012542;28;20040;-45
2022/01/11 01:25:09;;;;;;;68.75;20.42;;;;;;;-0.76;100.00;103042.69;5009096;28;20029;-47
2022/01/11 01:27:34;;;;;;;73.80;23.02;;;;;;;-0.76;100.00;103047.94;5010817;28;20112;-46
2022/01/11 01:29:59;;;;;;;62.33;19.95;;;;;;;-0.75;100.00;103049.66;5012115;28;20485;-45
2022/01/11 01:32:25;;;;;;;72.07;22.50;;;;;;;-0.79;100.00;103051.47;5010078;28;20025;-49
2022/01/11 01:34:52;;;;;;;70.13;22.77;;;;;;;-0.82;100.00;103041.03;5011012;28;20102;-44
2022/01/11 01:37:18;;;;;;;71.95;22.05;;;;;;;-0.81;100.00;103042.78;5012424;28;20160;-45
2022/01/11 01:39:44;;;;;;;66.63;21.58;;;;;;;-0.77;100.00;103044.44;5008826;28;20555;-46
2022/01/11 01:42:11;;;;;;;69.82;21.30;;;;;;;-0.72;100.00;103033.84;5011939;28;20044;-45
2022/01/11 01:44:39;;;;;;;68.15;20.00;;;;;;;-0.70;100.00;103036.44;5010584;28;20277;-45
2022/01/11 01:47:05;;;;;;;67.85;22.25;;;;;;;-0.69;100.00;103035.56;5010313;28;20107;-49
2022/01/11 01:49:33;;;;;;;65.63;21.95;;;;;;;-0.68;100.00;103034.63;5011457;28;20168;-46
2022/01/11 01:51:58;;;;;;;62.90;20.77;;;;;;;-0.67;100.00;103037.22;5011517;28;20477;-49
2022/01/11 01:54:25;;;;;;;77.40;24.17;;;;;;;-0.65;100.00;103038.06;5010576;28;20028;-45
2022/01/11 01:56:50;;;;;;;69.30;22.40;;;;;;;-0.64;100.00;103038.94;5010549;28;20502;-44
2022/01/11 01:59:16;;;;;;;63.63;21.10;;;;;;;-0.62;100.00;103039.75;5012480;28;20018;-47
2022/01/11 02:01:46;;;;;;;66.13;21.20;;;;;;;-0.59;100.00;103048.44;5009346;28;20030;-45
2022/01/11 02:04:13;;;;;;;66.80;21.70;;;;;;;-0.63;100.00;103044.16;5010936;28;20048;-45
2022/01/11 02:06:38;;;;;;;65.97;22.17;;;;;;;-0.63;100.00;103048.53;5010122;28;20045;-45
2022/01/11 02:09:04;;;;;;;66.63;20.73;;;;;;;-0.62;100.00;103048.50;5008333;28;20025;-45
2022/01/11 02:11:31;;;;;;;59.95;20.70;;;;;;;-0.61;100.00;103044.97;5010502;28;20037;-45
2022/01/11 02:13:56;;;;;;;67.15;21.70;;;;;;;-0.63;100.00;103049.41;5015126;28;20099;-45
2022/01/11 02:16:22;;;;;;;62.35;20.02;;;;;;;-0.61;100.00;103065.09;5017559;28;20076;-43
2022/01/11 02:18:51;;;;;;;66.93;21.20;;;;;;;-0.60;100.00;103069.44;5009115;28;20097;-45
2022/01/11 02:21:17;;;;;;;65.80;20.75;;;;;;;-0.64;100.00;103076.53;5011431;28;20032;-44
2022/01/11 02:23:43;;;;;;;63.30;21.55;;;;;;;-0.68;100.00;103080.13;5009483;28;20120;-45
2022/01/11 02:26:09;;;;;;;78.30;24.55;;;;;;;-0.76;100.00;103076.81;5009064;28;20061;-45
2022/01/11 02:28:35;;;;;;;74.72;24.40;;;;;;;-0.79;100.00;103082.97;5010017;28;20044;-42
2022/01/11 02:31:04;;;;;;;69.47;21.60;;;;;;;-0.83;100.00;103077.81;5010551;28;20022;-44
2022/01/11 02:33:33;;;;;;;74.88;20.92;;;;;;;-0.80;100.00;103083.88;5008845;28;20045;-44
2022/01/11 02:36:05;;;;;;;69.53;20.92;;;;;;;-0.77;100.00;103085.56;5010418;28;20021;-47
2022/01/11 02:38:30;;;;;;;82.28;24.38;;;;;;;-0.79;100.00;103088.22;5010388;28;20276;-44
2022/01/11 02:40:57;;;;;;;73.82;23.50;;;;;;;-0.83;100.00;103086.56;5008727;28;20025;-45
2022/01/11 02:43:23;;;;;;;68.03;21.48;;;;;;;-0.80;100.00;103094.38;5011374;28;20392;-44
2022/01/11 02:45:48;;;;;;;69.20;21.17;;;;;;;-0.80;100.00;103090.88;5010665;28;20037;-44
2022/01/11 02:48:14;;;;;;;81.47;25.02;;;;;;;-0.81;100.00;103094.41;5009742;28;20053;-44
2022/01/11 02:50:39;;;;;;;70.85;21.02;;;;;;;-0.80;100.00;103102.25;5016030;28;20227;-45
2022/01/11 02:53:04;;;;;;;78.80;24.45;;;;;;;-0.78;100.00;103095.19;5019686;28;20520;-45
2022/01/11 02:55:33;;;;;;;74.85;23.65;;;;;;;-0.79;100.00;103103.94;5019883;28;20226;-45
2022/01/11 02:57:58;;;;;;;74.40;22.20;;;;;;;-0.81;100.00;103097.88;5002952;28;20034;-45
2022/01/11 03:00:24;;;;;;;74.22;23.60;;;;;;;-0.82;100.00;103101.38;5019995;28;20040;-45
2022/01/11 03:02:50;;;;;;;72.32;23.58;;;;;;;-0.79;100.00;103103.94;5020031;28;20364;-45
2022/01/11 03:05:15;;;;;;;81.93;24.20;;;;;;;-0.80;100.00;103102.25;5020633;28;20049;-45
2022/01/11 03:07:42;;;;;;;86.65;26.55;;;;;;;-0.85;100.00;103096.22;5019381;28;20033;-45
2022/01/11 03:10:32;;;;;;;82.10;23.65;;;;;;;-0.83;100.00;103098.78;5019285;28;20164;-44
2022/01/11 03:13:03;;;;;;;75.20;22.13;;;;;;;-0.83;100.00;103099.69;5020081;28;20459;-44
2022/01/11 03:15:28;;;;;;;77.63;22.80;;;;;;;-0.79;100.00;103114.44;5019821;28;20112;-44
2022/01/11 03:17:54;;;;;;;81.57;23.95;;;;;;;-0.80;100.00;103112.75;5021942;28;20227;-47
2022/01/11 03:20:19;;;;;;;79.88;23.73;;;;;;;-0.82;100.00;103104.00;5024289;28;20385;-48
2022/01/11 03:22:44;;;;;;;75.22;22.10;;;;;;;-0.78;100.00;103102.19;5023756;28;20075;-45
2022/01/11 03:25:12;;;;;;;75.68;22.33;;;;;;;-0.78;100.00;103100.44;5022481;28;20033;-46
2022/01/11 03:27:38;;;;;;;82.05;25.48;;;;;;;-0.79;100.00;103096.09;5023411;28;20103;-45
2022/01/11 03:30:04;;;;;;;76.75;22.88;;;;;;;-0.81;100.00;103090.00;5023585;28;20079;-45
2022/01/11 03:32:30;;;;;;;83.82;25.98;;;;;;;-0.83;100.00;103091.81;5020723;28;20022;-46
2022/01/11 03:34:55;;;;;;;72.18;23.05;;;;;;;-0.83;100.00;103091.81;5003665;28;20026;-45
2022/01/11 03:37:20;;;;;;;86.40;25.73;;;;;;;-0.84;100.00;103092.69;5004543;28;20089;-46
2022/01/11 03:39:47;;;;;;;81.07;25.33;;;;;;;-0.85;100.00;103090.97;5001856;28;20076;-47
2022/01/11 03:42:12;;;;;;;83.60;24.13;;;;;;;-0.85;100.00;103087.47;5004413;28;20018;-48
2022/01/11 03:44:38;;;;;;;79.85;24.75;;;;;;;-0.85;100.00;103093.59;5012312;28;20037;-47
2022/01/11 03:47:03;;;;;;;74.47;22.13;;;;;;;-0.84;100.00;103091.84;5024007;28;20026;-48
2022/01/11 03:49:29;;;;;;;74.50;22.02;;;;;;;-0.83;100.00;103102.31;5022935;28;20021;-45
2022/01/11 03:51:55;;;;;;;73.32;23.65;;;;;;;-0.85;100.00;103101.47;5023346;28;20025;-50
2022/01/11 03:54:26;;;;;;;77.95;24.92;;;;;;;-0.84;100.00;103105.81;5022369;28;20022;-49
2022/01/11 03:56:52;;;;;;;;;;;;;;;-0.84;100.00;103092.69;5023074;28;20136;-47
2022/01/11 03:59:19;;;;;;;72.43;22.23;;;;;;;-0.87;100.00;103092.75;5022839;28;20004;-47
2022/01/11 04:01:45;;;;;;;73.57;23.88;;;;;;;-0.90;100.00;103107.69;5022956;28;20033;-45
2022/01/11 04:04:11;;;;;;;75.13;22.10;;;;;;;-0.92;100.00;103102.47;5022657;28;20264;-45
2022/01/11 04:06:37;;;;;;;71.72;21.08;;;;;;;-0.92;100.00;103105.09;5022412;28;20033;-48
2022/01/11 04:09:04;;;;;;;78.93;23.25;;;;;;;-0.92;100.00;103107.72;5022728;28;20083;-49
2022/01/11 04:11:30;;;;;;;73.90;23.45;;;;;;;-0.91;100.00;103103.34;5022688;28;20017;-46
2022/01/11 04:13:55;;;;;;;64.72;21.83;;;;;;;-0.90;100.00;103110.31;5022251;28;20040;-45
2022/01/11 04:16:21;;;;;;;74.50;23.48;;;;;;;-0.94;100.00;103102.50;5022855;28;20029;-47
2022/01/11 04:18:46;;;;;;;66.40;21.98;;;;;;;-0.89;100.00;103102.41;5021939;28;20106;-47
2022/01/11 04:21:12;;;;;;;72.47;23.17;;;;;;;-0.90;100.00;103105.94;5023369;28;20189;-49
2022/01/11 04:23:38;;;;;;;72.85;25.40;;;;;;;-0.94;100.00;103106.88;5006843;28;20026;-50
2022/01/11 04:26:04;;;;;;;69.35;23.60;;;;;;;-0.95;100.00;103106.03;5002687;28;20037;-46
2022/01/11 04:28:29;;;;;;;77.55;23.52;;;;;;;-0.97;100.00;103113.06;5002352;28;20141;-47
2022/01/11 04:30:59;;;;;;;63.92;21.63;;;;;;;-0.94;100.00;103118.22;5002628;28;20014;-46
2022/01/11 04:33:25;;;;;;;65.18;23.48;;;;;;;-0.95;100.00;103118.25;5001977;28;20476;-47
2022/01/11 04:35:51;;;;;;;81.60;28.40;;;;;;;-0.98;100.00;103118.34;4984902;28;20017;-46
2022/01/11 04:38:18;;;;;;;73.72;26.08;;;;;;;-1.00;100.00;103126.25;5001768;28;20030;-45
2022/01/11 04:40:43;;;;;;;68.53;22.65;;;;;;;-1.03;100.00;103122.81;5001807;28;20409;-45
2022/01/11 04:43:08;;;;;;;68.40;21.55;;;;;;;-1.00;100.00;103120.13;5002511;28;20072;-48
2022/01/11 04:45:34;;;;;;;67.60;23.80;;;;;;;-1.00;100.00;103126.25;4983977;28;20036;-48
2022/01/11 04:47:59;;;;;;;69.28;22.38;;;;;;;-0.99;100.00;103127.09;5002108;28;20061;-46
2022/01/11 04:50:26;;;;;;;65.07;21.35;;;;;;;-0.97;100.00;103125.31;5002070;28;20014;-47
2022/01/11 04:52:51;;;;;;;76.78;25.95;;;;;;;-0.98;100.00;103128.84;5001024;28;20117;-45
2022/01/11 04:55:17;;;;;;;76.15;25.52;;;;;;;-1.01;100.00;103115.78;5001846;28;20113;-48
2022/01/11 04:57:43;;;;;;;67.97;22.83;;;;;;;-1.00;100.00;103120.13;4984476;28;20022;-48
2022/01/11 05:00:09;;;;;;;65.18;21.85;;;;;;;-1.04;100.00;103119.31;4984335;28;20516;-44
2022/01/11 05:02:34;;;;;;;65.65;21.63;;;;;;;-1.02;100.00;103117.56;5000822;28;20503;-48
2022/01/11 05:05:00;;;;;;;66.95;21.85;;;;;;;-1.01;100.00;103110.53;5002511;28;21112;-44
2022/01/11 05:07:25;;;;;;;78.95;29.10;;;;;;;-1.06;100.00;103110.63;5002282;28;20030;-47
2022/01/11 05:09:51;;;;;;;66.78;22.20;;;;;;;-1.13;100.00;103109.00;5000310;28;20392;-44
2022/01/11 05:12:16;;;;;;;69.07;22.33;;;;;;;-1.19;100.00;103112.63;5002027;28;20022;-46
2022/01/11 05:14:42;;;;;;;74.55;25.98;;;;;;;-1.21;100.00;103113.53;5001470;28;20445;-45
2022/01/11 05:17:07;;;;;;;76.45;22.77;;;;;;;-1.22;100.00;103109.16;4983451;28;20037;-46
2022/01/11 05:19:32;;;;;;;72.22;24.55;;;;;;;-1.25;100.00;103104.00;5001705;28;20030;-46
2022/01/11 05:21:57;;;;;;;72.20;23.30;;;;;;;-1.29;100.00;103100.59;5001775;28;20041;-47
2022/01/11 05:24:23;;;;;;;69.20;23.55;;;;;;;-1.31;100.00;103099.72;5000880;28;20105;-49
2022/01/11 05:26:48;;;;;;;66.80;23.50;;;;;;;-1.36;100.00;103099.84;5000659;28;20037;-47
2022/01/11 05:29:13;;;;;;;73.40;23.63;;;;;;;-1.38;100.00;103105.97;5001812;28;20071;-44
2022/01/11 05:31:39;;;;;;;73.38;23.83;;;;;;;-1.42;100.00;103107.78;5000647;28;20161;-44
2022/01/11 05:34:04;;;;;;;75.35;22.58;;;;;;;-1.43;100.00;103106.06;5001732;28;20052;-47
2022/01/11 05:36:29;;;;;;;75.00;24.35;;;;;;;-1.47;100.00;103106.16;5001140;28;20037;-46
2022/01/11 05:38:54;;;;;;;71.63;23.55;;;;;;;-1.47;100.00;103109.63;5000174;28;20120;-46
2022/01/11 05:41:20;;;;;;;73.40;23.02;;;;;;;-1.48;100.00;103120.13;5000809;28;20380;-46
2022/01/11 05:43:45;;;;;;;81.57;25.88;;;;;;;-1.53;100.00;103117.59;5000074;28;20030;-45
2022/01/11 05:46:11;;;;;;;78.53;24.50;;;;;;;-1.55;100.00;103112.38;5001415;28;20084;-45
2022/01/11 05:48:36;;;;;;;82.05;25.15;;;;;;;-1.60;100.00;103114.22;4982740;28;20215;-48
2022/01/11 05:51:02;;;;;;;79.63;23.63;;;;;;;-1.62;100.00;103113.38;5001096;28;20540;-46
2022/01/11 05:53:27;;;;;;;79.15;24.88;;;;;;;-1.63;100.00;103118.63;5000351;28;20127;-46
2022/01/11 05:55:52;;;;;;;80.93;24.48;;;;;;;-1.65;100.00;103128.28;5000740;28;20489;-47
2022/01/11 05:58:18;;;;;;;87.20;27.13;;;;;;;-1.66;100.00;103139.66;5000563;28;20099;-46
2022/01/11 06:00:43;;;;;;;78.25;24.70;;;;;;;-1.70;100.00;103139.72;5000119;28;20388;-45
2022/01/11 06:03:08;;;;;;;86.60;25.02;;;;;;;-1.69;100.00;103144.06;5001166;28;20369;-48
2022/01/11 06:05:38;;;;;;;75.95;23.60;;;;;;;-1.71;100.00;103151.06;5000472;28;20036;-47
2022/01/11 06:08:04;;;;;;;87.93;26.10;;;;;;;-1.72;100.00;103145.88;5000730;28;20029;-48
2022/01/11 06:10:30;;;;;;;79.55;24.10;;;;;;;-1.72;100.00;103153.72;4999822;28;20555;-49
2022/01/11 06:12:55;;;;;;;76.55;24.77;;;;;;;-1.74;100.00;103161.59;5000773;28;20068;-49
2022/01/11 06:15:20;;;;;;;82.35;24.65;;;;;;;-1.78;100.00;103164.28;5000498;28;20123;-44
2022/01/11 06:17:46;;;;;;;77.32;24.83;;;;;;;-1.77;100.00;103176.50;5000370;28;20052;-48
2022/01/11 06:20:11;;;;;;;81.32;25.52;;;;;;;-1.77;100.00;103181.75;5001012;28;20029;-45
2022/01/11 06:22:37;;;;;;;83.95;24.88;;;;;;;-1.86;100.00;103159.19;4998897;28;20041;-46
2022/01/11 06:25:03;;;;;;;88.57;26.63;;;;;;;-1.84;100.00;103173.09;4999573;28;20037;-48
2022/01/11 06:27:30;;;;;;;87.63;26.50;;;;;;;-1.82;100.00;103180.94;5000388;28;20036;-47
2022/01/11 06:29:56;;;;;;;84.93;25.27;;;;;;;-1.83;100.00;103177.47;5006347;28;20025;-47
2022/01/11 06:32:21;;;;;;;82.43;25.15;;;;;;;-1.81;100.00;103177.44;5020387;28;20392;-45
2022/01/11 06:34:46;;;;;;;79.22;24.35;;;;;;;-1.81;100.00;103178.31;5018711;28;20025;-48
2022/01/11 06:37:12;;;;;;;76.95;24.50;;;;;;;-1.78;100.00;103180.88;5020088;28;20033;-45
2022/01/11 06:39:38;;;;;;;79.10;24.42;;;;;;;-1.76;100.00;103186.09;5017630;28;20037;-49
2022/01/11 06:42:05;;;;;;;85.57;26.15;;;;;;;-1.75;100.00;103187.81;5019995;28;20673;-48
2022/01/11 06:44:31;;;;;;;81.68;24.10;;;;;;;-1.74;100.00;103184.31;5019064;28;20112;-46
2022/01/11 06:46:56;;;;;;;81.65;26.75;;;;;;;-1.74;100.00;103187.78;5018792;28;20028;-50
2022/01/11 06:49:21;;;;;;;77.30;22.90;;;;;;;-1.74;100.00;103182.56;5016903;28;20192;-45
2022/01/11 06:51:47;;;;;;;78.85;25.02;;;;;;;-1.73;100.00;103183.41;5013622;28;20029;-45
2022/01/11 06:54:12;;;;;;;82.55;25.63;;;;;;;-1.72;100.00;103188.63;5009841;28;20218;-45
2022/01/11 06:56:39;;;;;;;74.13;24.30;;;;;;;-1.73;100.00;103188.66;5003214;28;20499;-46
2022/01/11 06:59:04;;;;;;;77.60;24.92;;;;;;;-1.74;100.00;103186.94;5012331;28;20026;-47
2022/01/11 07:01:29;;;;;;;85.53;25.88;;;;;;;-1.73;100.00;103188.66;5014651;28;20091;-46
2022/01/11 07:03:55;;;;;;;79.40;24.88;;;;;;;-1.73;100.00;103188.66;5020847;28;20030;-48
2022/01/11 07:06:20;;;;;;;74.95;25.00;;;;;;;-1.76;100.00;103188.72;5022266;28;20029;-46
2022/01/11 07:08:45;;;;;;;77.10;25.02;;;;;;;-1.74;100.00;103190.41;5021360;28;20027;-44
2022/01/11 07:11:12;;;;;;;75.28;23.65;;;;;;;-1.74;100.00;103203.50;5021905;28;20124;-47
2022/01/11 07:13:37;;;;;;;74.35;24.05;;;;;;;-1.74;100.00;103206.13;5018138;28;20025;-47
2022/01/11 07:16:03;;;;;;;74.22;25.45;;;;;;;-1.75;100.00;103204.41;5022089;28;20032;-46
2022/01/11 07:18:28;;;;;;;79.00;24.23;;;;;;;-1.77;100.00;103202.69;5022035;28;20017;-48
2022/01/11 07:20:53;;;;;;;71.43;24.15;;;;;;;-1.79;100.00;103207.97;5003441;28;20119;-46
2022/01/11 07:23:19;;;;;;;70.40;23.95;;;;;;;-1.78;100.00;103214.94;5021051;28;20026;-47
2022/01/11 07:25:44;;;;;;;74.28;24.45;;;;;;;-1.80;100.00;103216.72;5020557;28;20045;-45
2022/01/11 07:28:12;;;;;;;75.38;24.52;;;;;;;-1.82;100.00;103217.63;5003867;28;20025;-47
2022/01/11 07:30:37;;;;;;;74.22;23.33;;;;;;;-1.84;100.00;103219.41;5007840;28;20030;-43
2022/01/11 07:33:02;;;;;;;71.28;23.38;;;;;;;-1.83;100.00;103227.25;5017087;28;20404;-46
2022/01/11 07:35:28;;;;;;;68.40;22.05;;;;;;;-1.83;100.00;103224.63;5016839;28;20029;-43
2022/01/11 07:37:53;;;;;;;75.50;23.83;;;;;;;-1.82;100.00;103228.09;5016559;28;20195;-46
2022/01/11 07:40:19;;;;;;;77.93;24.13;;;;;;;-1.82;100.00;103234.19;5014466;28;20097;-44
2022/01/11 07:42:44;;;;;;;66.93;22.92;;;;;;;-1.81;100.00;103235.06;5015323;28;20030;-46
2022/01/11 07:45:10;;;;;;;66.43;22.73;;;;;;;-1.81;100.00;103237.69;5021237;28;20033;-45
2022/01/11 07:47:35;;;;;;;63.78;22.88;;;;;;;-1.78;100.00;103243.75;5021007;28;20099;-46
2022/01/11 07:50:02;;;;;;;64.10;22.30;;;;;;;-1.76;100.00;103241.13;5021647;28;20074;-48
2022/01/11 07:52:27;;;;;;;71.57;22.73;;;;;;;-1.77;100.00;103244.63;5012877;28;20586;-48
2022/01/11 07:54:53;;;;;;;66.32;22.85;;;;;;;-1.75;100.00;103248.06;5020761;28;20030;-46
2022/01/11 07:57:18;;;;;;;70.40;23.70;;;;;;;-1.76;100.00;103249.84;5007508;28;20607;-46
2022/01/11 07:59:43;;;;;;;64.70;22.58;;;;;;;-1.74;100.00;103247.19;5020772;28;20511;-48
2022/01/11 08:02:09;;;;;;;69.15;23.65;;;;;;;-1.72;100.00;103245.41;5020610;28;20033;-43
2022/01/11 08:04:34;;;;;;;58.22;22.60;;;;;;;-1.71;100.00;103242.78;5016133;28;20029;-45
2022/01/11 08:07:00;;;;;;;61.08;21.48;;;;;;;-1.67;100.00;103242.72;5017168;28;20076;-46
2022/01/11 08:09:26;;;;;;;63.92;22.63;;;;;;;-1.64;100.00;103235.69;5020513;28;20022;-46
2022/01/11 08:11:55;;;;;;;66.55;22.85;;;;;;;-1.59;100.00;103243.50;5020652;28;20105;-49
2022/01/11 08:14:20;;;;;;;65.47;23.67;;;;;;;-1.57;100.00;103252.19;5021105;28;20408;-50
2022/01/11 08:16:46;;;;;;;63.67;22.10;;;;;;;-1.54;100.00;103245.13;5019743;28;20032;-49
2022/01/11 08:19:11;;;;;;;62.60;24.27;;;;;;;-1.48;100.00;103249.41;5020598;28;20104;-45
2022/01/11 08:21:36;;;;;;;65.40;23.50;;;;;;;-1.47;100.00;103253.78;5001642;28;20475;-46
2022/01/11 08:24:01;;;;;;;62.78;24.05;;;;;;;-1.44;100.00;103255.47;5012031;28;20388;-45
2022/01/11 08:26:27;;;;;;;65.78;23.73;;;;;;;-1.40;100.00;103255.41;5018257;28;20293;-47
2022/01/11 08:28:52;;;;;;;62.00;23.95;;;;;;;-1.35;100.00;103253.56;5019861;28;20512;-45
2022/01/11 08:31:19;;;;;;;63.05;23.75;;;;;;;-1.28;100.00;103250.88;5017907;28;20047;-49
2022/01/11 08:33:45;;;;;;;62.53;23.52;;;;;;;-1.22;100.00;103249.00;5020132;28;20531;-47
2022/01/11 08:36:11;;;;;;;56.08;21.70;;;;;;;-1.17;100.00;103249.81;5016028;28;20025;-43
2022/01/11 08:38:36;;;;;;;71.45;25.20;;;;;;;-1.14;100.00;103267.22;5017705;28;20029;-45
2022/01/11 08:41:02;;;;;;;61.78;24.05;;;;;;;-1.11;100.00;103259.31;5020045;28;20088;-45
2022/01/11 08:43:27;;;;;;;61.10;23.13;;;;;;;-1.08;100.00;103255.78;5015903;28;20032;-46
2022/01/11 08:45:52;;;;;;;62.78;23.02;;;;;;;-1.05;100.00;103255.72;5021380;28;20431;-45
2022/01/11 08:48:18;;;;;;;54.75;22.33;;;;;;;-0.99;100.00;103266.09;5021105;28;20091;-45
2022/01/11 08:50:43;;;;;;;62.72;23.05;;;;;;;-0.96;100.00;103263.44;5016513;28;20038;-44
2022/01/11 08:53:08;;;;;;;60.17;22.08;;;;;;;-0.92;100.00;103265.09;5012618;28;20107;-46
2022/01/11 08:55:35;;;;;;;59.83;21.25;;;;;;;-0.86;100.00;103258.91;5015551;28;20025;-47
2022/01/11 08:58:00;;;;;;;61.47;21.67;;;;;;;-0.84;100.00;103264.97;5015006;28;20220;-47
2022/01/11 09:00:26;;;;;;;62.47;23.27;;;;;;;-0.77;100.00;103261.34;5019460;28;20116;-43
2022/01/11 09:02:52;;;;;;;62.53;22.42;;;;;;;-0.72;100.00;103266.53;5019754;28;20109;-45
2022/01/11 09:05:18;;;;;;;56.58;22.30;;;;;;;-0.68;100.00;103258.56;5020527;28;20429;-43
2022/01/11 09:07:44;;;;;;;54.15;21.48;;;;;;;-0.63;100.00;103261.09;5019681;28;20028;-43
2022/01/11 09:10:11;;;;;;;61.72;21.42;;;;;;;-0.57;100.00;103264.47;5020328;28;20384;-46
2022/01/11 09:12:37;;;;;;;54.92;21.75;;;;;;;-0.50;100.00;103257.34;5019819;28;20554;-44
2022/01/11 09:15:05;;;;;;;53.05;20.40;;;;;;;-0.41;100.00;103258.91;5011510;28;20017;-46
2022/01/11 09:17:30;;;;;;;49.83;20.20;;;;;;;-0.39;100.00;103265.00;5014500;28;20104;-46
2022/01/11 09:19:55;;;;;;;48.88;20.45;;;;;;;-0.29;100.00;103265.69;5019337;28;20432;-46
2022/01/11 09:22:21;;;;;;;53.92;22.63;;;;;;;-0.22;100.00;103269.91;5020494;28;20033;-44
2022/01/11 09:24:47;;;;;;;53.20;20.92;;;;;;;-0.15;100.00;103268.03;5019998;28;20030;-44
2022/01/11 09:27:13;;;;;;;52.72;19.67;;;;;;;-0.09;100.00;103275.78;5014572;28;20068;-45
2022/01/11 09:29:38;;;;;;;49.25;20.17;;;;;;;-0.02;100.00;103278.28;4999503;28;20029;-47
2022/01/11 09:32:06;;;;;;;50.75;20.40;;;;;;;0.04;100.00;103279.03;5015466;28;20024;-45
2022/01/11 09:34:31;;;;;;;48.35;21.45;;;;;;;0.08;100.00;103278.06;5017917;28;20029;-45
2022/01/11 09:36:56;;;;;;;48.75;20.88;;;;;;;0.13;100.00;103281.47;5018390;28;20024;-44
2022/01/11 09:39:22;;;;;;;51.67;17.60;;;;;;;0.17;100.00;103288.34;5018993;28;20022;-44
2022/01/11 09:41:47;;;;;;;52.63;20.10;;;;;;;0.18;100.00;103288.31;5014954;28;20034;-46
2022/01/11 09:44:13;;;;;;;44.40;17.23;;;;;;;0.23;100.00;103288.25;5012040;28;20387;-45
2022/01/11 09:46:38;;;;;;;41.67;18.50;;;;;;;0.27;100.00;103291.66;5014135;28;20033;-44
2022/01/11 09:49:04;;;;;;;50.40;19.10;;;;;;;0.32;100.00;103292.41;4998890;28;20017;-44
2022/01/11 09:51:31;;;;;;;44.95;18.05;;;;;;;0.39;100.00;103298.41;5017947;28;20587;-46
2022/01/11 09:53:57;;;;;;;44.30;16.85;;;;;;;0.44;100.00;103297.44;5017417;28;20034;-49
2022/01/11 09:56:23;;;;;;;39.38;16.98;;;;;;;0.49;100.00;103295.56;4999564;28;20357;-45
2022/01/11 09:58:48;;;;;;;40.05;16.95;;;;;;;0.57;100.00;103297.13;5015249;28;20017;-43
2022/01/11 10:01:13;;;;;;;35.83;16.25;;;;;;;0.64;100.00;103299.56;5018731;28;20104;-45
2022/01/11 10:04:10;;;;;;;39.28;15.75;;;;;;;0.72;100.00;103304.66;5017121;28;20036;-43
2022/01/11 10:06:39;;;;;;;40.63;15.70;;;;;;;0.80;100.00;103301.84;4994233;28;20025;-47
2022/01/11 10:09:18;;;;;;;38.22;15.07;;;;;;;0.86;100.00;103306.97;5018367;28;20101;-44
2022/01/11 10:11:49;;;;;;;37.92;15.65;;;;;;;0.94;100.00;103299.75;5018099;28;20026;-44
2022/01/11 10:14:32;;;;;;;41.25;16.60;;;;;;;1.05;100.00;103302.09;5019085;28;20545;-43
2022/01/11 10:17:12;;;;;;;35.45;15.43;;;;;;;1.13;100.00;103299.28;4999739;28;20237;-47
2022/01/11 10:19:40;;;;;;;37.45;14.95;;;;;;;1.17;100.00;103296.56;5018658;28;20036;-49
2022/01/11 10:22:09;;;;;;;36.22;14.65;;;;;;;1.25;100.00;103306.88;5017922;28;20591;-45
2022/01/11 10:24:43;;;;;;;42.10;16.17;;;;;;;1.25;100.00;103293.72;5001333;28;20031;-43
2022/01/11 10:27:13;;;;;;;38.92;16.45;;;;;;;1.28;100.00;103294.47;5000686;28;20072;-45
2022/01/11 10:29:42;;;;;;;40.30;18.70;;;;;;;1.28;100.00;103299.75;5017877;28;20010;-47
2022/01/11 10:32:27;;;;;;;37.78;16.67;;;;;;;1.33;100.00;103291.75;5019315;28;20017;-43
2022/01/11 10:34:55;;;;;;;42.20;16.30;;;;;;;1.36;100.00;103293.41;5018822;28;20408;-43
2022/01/11 10:37:36;;;;;;;40.28;16.63;;;;;;;1.40;100.00;103301.19;5018044;28;20503;-44
2022/01/11 10:40:12;;;;;;;34.20;15.60;;;;;;;1.48;100.00;103301.00;5018979;28;20312;-44
2022/01/11 10:42:44;;;;;;;41.42;16.90;;;;;;;1.49;100.00;103298.34;5017310;28;20389;-43
2022/01/11 10:45:12;;;;;;;45.17;16.30;;;;;;;1.52;100.00;103305.28;5018235;28;20026;-44
2022/01/11 10:47:44;;;;;;;39.72;16.13;;;;;;;1.52;100.00;103310.53;5017893;28;20022;-43
2022/01/11 10:50:22;;;;;;;40.35;15.63;;;;;;;1.52;100.00;103305.28;5015452;28;20025;-44
2022/01/11 10:52:48;;;;;;;38.40;14.80;;;;;;;1.52;100.00;103301.78;5010891;28;20033;-44
2022/01/11 10:55:18;;;;;;;38.50;15.30;;;;;;;1.53;100.00;103298.22;5008836;28;20053;-47
2022/01/11 10:57:53;;;;;;;37.35;14.00;;;;;;;1.53;100.00;103299.13;5010863;28;20043;-46
2022/01/11 11:00:37;;;;;;;31.58;14.18;;;;;;;1.50;100.00;103293.94;4991955;28;20125;-47
2022/01/11 11:03:13;;;;;;;30.92;15.13;;;;;;;1.52;100.00;103296.50;5010391;28;20037;-45